Time;durP1;ratioP1;P1;durP2;ratioP2;P2;SDS_P1;SDS_P2;PMS_P1;PMS_P2;Temp;Humidity;BMP_temperature;BMP_pressure;BME280_temperature;BME280_humidity;BME280_pressure;Samples;Min_cycle;Max_cycle;Signal;HPM_P1;HPM_P2
2021/04/21 00:00:49;;;;;;;;;;;17.70;65.20;;;;;;5072189;28;19916;-78
2021/04/21 00:03:16;;;;;;;;;;;17.70;65.20;;;;;;5068761;28;20324;-79
2021/04/21 00:05:41;;;;;;;;;;;17.70;65.10;;;;;;5072889;28;19919;-80
2021/04/21 00:08:08;;;;;;;;;;;17.70;65.10;;;;;;5072996;28;19912;-78
2021/04/21 00:10:33;;;;;;;;;;;17.70;65.10;;;;;;5050023;28;20015;-78
2021/04/21 00:13:00;;;;;;;;;;;17.70;65.10;;;;;;5048551;28;20033;-78
2021/04/21 00:15:25;;;;;;;;;;;17.70;65.10;;;;;;5050488;28;19967;-78
2021/04/21 00:17:57;;;;;;;;;;;17.70;65.10;;;;;;5052739;28;19956;-78
2021/04/21 00:20:23;;;;;;;;;;;17.70;65.10;;;;;;5049830;28;19923;-78
2021/04/21 00:22:51;;;;;;;;;;;17.70;65.00;;;;;;5062632;28;19913;-79
2021/04/21 00:25:17;;;;;;;;;;;17.70;65.00;;;;;;5043670;28;19927;-81
2021/04/21 00:27:43;;;;;;;;;;;17.70;65.00;;;;;;5052430;28;20365;-81
2021/04/21 00:30:10;;;;;;;;;;;17.70;65.00;;;;;;5051616;28;19913;-78
2021/04/21 00:32:44;;;;;;;;;;;17.70;65.00;;;;;;5052987;28;19952;-78
2021/04/21 00:35:12;;;;;;;;;;;17.70;65.00;;;;;;5052509;28;19959;-79
2021/04/21 00:37:37;;;;;;;;;;;17.70;65.00;;;;;;5051602;28;19924;-81
2021/04/21 00:40:04;;;;;;;;;;;17.70;65.00;;;;;;5050474;28;19917;-80
2021/04/21 00:42:49;;;;;;;;;;;17.60;65.00;;;;;;5049879;28;19924;-78
2021/04/21 00:45:15;;;;;;;;;;;17.70;65.00;;;;;;5050786;28;19923;-78
2021/04/21 00:47:44;;;;;;;;;;;17.70;64.90;;;;;;5048154;28;19913;-78
2021/04/21 00:50:22;;;;;;;;;;;17.70;64.90;;;;;;5051119;28;19913;-79
2021/04/21 00:52:54;;;;;;;;;;;17.60;64.90;;;;;;5043894;28;19925;-78
2021/04/21 00:55:26;;;;;;;;;;;17.60;64.90;;;;;;5044249;28;19913;-81
2021/04/21 00:57:51;;;;;;;;;;;17.60;64.80;;;;;;5061258;28;19923;-78
2021/04/21 01:00:31;;;;;;;;;;;17.60;64.80;;;;;;5051997;28;20387;-80
2021/04/21 01:03:02;;;;;;;;;;;17.60;64.80;;;;;;5065609;28;19920;-78
2021/04/21 01:05:30;;;;;;;;;;;17.60;64.80;;;;;;5050463;28;19982;-81
2021/04/21 01:07:57;;;;;;;;;;;17.60;64.80;;;;;;5051351;28;19921;-84
2021/04/21 01:10:26;;;;;;;;;;;17.60;64.80;;;;;;5047074;28;20436;-78
2021/04/21 01:12:53;;;;;;;;;;;17.60;64.80;;;;;;5049033;28;19917;-78
2021/04/21 01:15:19;;;;;;;;;;;17.60;64.80;;;;;;5050585;28;19920;-80
2021/04/21 01:17:45;;;;;;;;;;;17.60;64.80;;;;;;5051873;28;19920;-78
2021/04/21 01:20:11;;;;;;;;;;;17.60;64.80;;;;;;5050741;28;19916;-78
2021/04/21 01:22:36;;;;;;;;;;;17.60;64.80;;;;;;5054362;28;19913;-78
2021/04/21 01:25:02;;;;;;;;;;;17.60;64.80;;;;;;5044527;28;19928;-78
2021/04/21 01:27:47;;;;;;;;;;;17.60;64.70;;;;;;5043199;28;19936;-78
2021/04/21 01:30:14;;;;;;;;;;;17.60;64.70;;;;;;5042614;28;19916;-78
2021/04/21 01:32:43;;;;;;;;;;;17.60;64.70;;;;;;5050006;28;19947;-78
2021/04/21 01:35:09;;;;;;;;;;;17.50;64.70;;;;;;5051880;28;19924;-84
2021/04/21 01:37:35;;;;;;;;;;;17.60;64.70;;;;;;5047197;28;19921;-79
2021/04/21 01:40:12;;;;;;;;;;;17.60;64.70;;;;;;5052258;28;20385;-78
2021/04/21 01:42:40;;;;;;;;;;;17.60;64.70;;;;;;5046687;28;19913;-79
2021/04/21 01:45:07;;;;;;;;;;;17.60;64.70;;;;;;5050102;28;19913;-78
2021/04/21 01:47:32;;;;;;;;;;;17.60;64.60;;;;;;5050693;28;19963;-79
2021/04/21 01:50:00;;;;;;;;;;;17.60;64.60;;;;;;5049489;28;19952;-78
2021/04/21 01:52:34;;;;;;;;;;;17.60;64.60;;;;;;5048237;28;19936;-77
2021/04/21 01:55:02;;;;;;;;;;;17.60;64.60;;;;;;5042933;28;19912;-80
2021/04/21 01:57:28;;;;;;;;;;;17.50;64.60;;;;;;5055589;28;19917;-80
2021/04/21 02:00:01;;;;;;;;;;;17.50;64.60;;;;;;5050068;28;20271;-78
2021/04/21 02:02:27;;;;;;;;;;;17.50;64.60;;;;;;5047809;28;19913;-77
2021/04/21 02:04:56;;;;;;;;;;;17.50;64.60;;;;;;5051968;28;19967;-78
2021/04/21 02:07:40;;;;;;;;;;;17.60;64.60;;;;;;5050606;28;19952;-78
2021/04/21 02:10:12;;;;;;;;;;;17.60;64.50;;;;;;5046702;28;19971;-78
2021/04/21 02:12:38;;;;;;;;;;;17.50;64.50;;;;;;5029027;28;19921;-78
2021/04/21 02:15:09;;;;;;;;;;;17.50;64.50;;;;;;5046534;28;20627;-78
2021/04/21 02:17:48;;;;;;;;;;;17.50;64.50;;;;;;5050093;28;19920;-78
2021/04/21 02:20:20;;;;;;;;;;;17.50;64.50;;;;;;5046488;28;20389;-78
2021/04/21 02:22:53;;;;;;;;;;;17.50;64.50;;;;;;5038197;28;20473;-81
2021/04/21 02:25:22;;;;;;;;;;;17.50;64.50;;;;;;5032402;28;19925;-78
2021/04/21 02:27:50;;;;;;;;;;;17.50;64.50;;;;;;5031000;28;19921;-79
2021/04/21 02:30:22;;;;;;;;;;;17.50;64.40;;;;;;5029647;28;20008;-78
2021/04/21 02:32:56;;;;;;;;;;;17.50;64.40;;;;;;5035571;28;20370;-78
2021/04/21 02:35:25;;;;;;;;;;;17.50;64.40;;;;;;5044960;28;19917;-78
2021/04/21 02:38:14;;;;;;;;;;;17.50;64.40;;;;;;5034982;28;19925;-79
2021/04/21 02:40:58;;;;;;;;;;;17.50;64.40;;;;;;5049429;28;19918;-78
2021/04/21 02:43:33;;;;;;;;;;;17.50;64.40;;;;;;5036624;28;19912;-78
2021/04/21 02:46:04;;;;;;;;;;;17.50;64.40;;;;;;5051062;28;19917;-78
2021/04/21 02:48:48;;;;;;;;;;;17.50;64.40;;;;;;5034935;28;19913;-77
2021/04/21 02:51:26;;;;;;;;;;;17.50;64.40;;;;;;5034570;28;20015;-78
2021/04/21 02:54:01;;;;;;;;;;;17.50;64.30;;;;;;5031288;28;20004;-78
2021/04/21 02:56:48;;;;;;;;;;;17.50;64.30;;;;;;5044779;28;20300;-78
2021/04/21 02:59:46;;;;;;;;;;;17.50;64.30;;;;;;5036648;28;19932;-77
2021/04/21 03:02:21;;;;;;;;;;;17.50;64.30;;;;;;5031615;28;19913;-78
2021/04/21 03:04:52;;;;;;;;;;;17.50;64.30;;;;;;5032352;28;19936;-78
2021/04/21 03:07:22;;;;;;;;;;;17.50;64.30;;;;;;5036445;28;20379;-78
2021/04/21 03:09:50;;;;;;;;;;;17.50;64.30;;;;;;5036112;28;19921;-78
2021/04/21 03:12:18;;;;;;;;;;;17.50;64.30;;;;;;5057902;28;19962;-79
2021/04/21 03:14:46;;;;;;;;;;;17.50;64.30;;;;;;5051109;28;19913;-78
2021/04/21 03:17:12;;;;;;;;;;;17.40;64.30;;;;;;5050670;28;20325;-78
2021/04/21 03:19:58;;;;;;;;;;;17.50;64.20;;;;;;5053551;28;20301;-78
2021/04/21 03:22:26;;;;;;;;;;;17.50;64.20;;;;;;5051198;28;19927;-79
2021/04/21 03:25:05;;;;;;;;;;;17.50;64.20;;;;;;5048199;28;19919;-80
2021/04/21 03:27:32;;;;;;;;;;;17.50;64.20;;;;;;5050826;28;20314;-87
2021/04/21 03:29:59;;;;;;;;;;;17.40;64.20;;;;;;5051399;28;20430;-78
2021/04/21 03:32:30;;;;;;;;;;;17.50;64.20;;;;;;5051374;28;19924;-78
2021/04/21 03:34:56;;;;;;;;;;;17.40;64.10;;;;;;5051771;28;19921;-78
2021/04/21 03:37:40;;;;;;;;;;;17.50;64.10;;;;;;5050538;28;19967;-78
2021/04/21 03:40:06;;;;;;;;;;;17.40;64.10;;;;;;5050851;28;19963;-78
2021/04/21 03:42:32;;;;;;;;;;;17.40;64.10;;;;;;5051358;28;19956;-78
2021/04/21 03:44:59;;;;;;;;;;;17.40;64.10;;;;;;5046137;28;20415;-77
2021/04/21 03:47:25;;;;;;;;;;;17.40;64.10;;;;;;5052040;28;19917;-78
2021/04/21 03:49:51;;;;;;;;;;;17.40;64.10;;;;;;5053745;28;20015;-78
2021/04/21 03:52:18;;;;;;;;;;;17.40;64.10;;;;;;5054111;28;20366;-80
2021/04/21 03:54:44;;;;;;;;;;;17.40;64.10;;;;;;5052494;28;19912;-78
2021/04/21 03:57:11;;;;;;;;;;;17.40;64.10;;;;;;5052015;28;20317;-78
2021/04/21 03:59:38;;;;;;;;;;;17.40;64.10;;;;;;5054044;28;19917;-78
2021/04/21 04:02:06;;;;;;;;;;;17.40;64.10;;;;;;5049882;28;19920;-82
2021/04/21 04:04:35;;;;;;;;;;;17.40;64.10;;;;;;5049282;28;19921;-77
2021/04/21 04:07:05;;;;;;;;;;;17.40;64.10;;;;;;5046807;28;19921;-78
2021/04/21 04:09:31;;;;;;;;;;;17.40;64.00;;;;;;5057730;28;19947;-79
2021/04/21 04:12:00;;;;;;;;;;;17.40;64.10;;;;;;5071164;28;19917;-79
2021/04/21 04:14:32;;;;;;;;;;;17.40;64.00;;;;;;5056348;28;19917;-77
2021/04/21 04:16:59;;;;;;;;;;;17.40;64.00;;;;;;5065860;28;19946;-77
2021/04/21 04:19:24;;;;;;;;;;;17.40;64.00;;;;;;5051204;28;20023;-78
2021/04/21 04:21:53;;;;;;;;;;;17.40;64.00;;;;;;5071412;28;20047;-78
2021/04/21 04:24:21;;;;;;;;;;;17.40;64.00;;;;;;5050668;28;19916;-86
2021/04/21 04:26:47;;;;;;;;;;;17.40;64.00;;;;;;5053787;28;19919;-79
2021/04/21 04:29:13;;;;;;;;;;;17.40;64.00;;;;;;5053246;28;19956;-78
2021/04/21 04:31:39;;;;;;;;;;;17.40;64.00;;;;;;5054515;28;21151;-80
2021/04/21 04:34:05;;;;;;;;;;;17.40;64.00;;;;;;5072616;28;19917;-78
2021/04/21 04:36:38;;;;;;;;;;;17.40;63.90;;;;;;5054858;28;19994;-77
2021/04/21 04:39:05;;;;;;;;;;;17.50;63.90;;;;;;5050221;28;20413;-77
2021/04/21 04:41:31;;;;;;;;;;;17.40;63.80;;;;;;5068975;28;20304;-77
2021/04/21 04:43:56;;;;;;;;;;;17.40;63.80;;;;;;5052368;28;19920;-77
2021/04/21 04:46:26;;;;;;;;;;;17.50;63.80;;;;;;5054048;28;19927;-78
2021/04/21 04:48:55;;;;;;;;;;;17.40;63.80;;;;;;5072323;28;20384;-78
2021/04/21 04:51:21;;;;;;;;;;;17.40;63.80;;;;;;5072478;28;19920;-78
2021/04/21 04:53:47;;;;;;;;;;;17.40;63.70;;;;;;5069357;28;19989;-81
2021/04/21 04:56:13;;;;;;;;;;;17.40;63.70;;;;;;5053191;28;20342;-78
2021/04/21 04:58:39;;;;;;;;;;;17.40;63.70;;;;;;5068238;28;20011;-86
2021/04/21 05:01:07;;;;;;;;;;;17.40;63.70;;;;;;5072051;28;20412;-78
2021/04/21 05:03:39;;;;;;;;;;;17.40;63.60;;;;;;5068637;28;19920;-77
2021/04/21 05:06:05;;;;;;;;;;;17.50;63.60;;;;;;5068157;28;19924;-78
2021/04/21 05:08:43;;;;;;;;;;;17.50;63.60;;;;;;5035121;28;20029;-78
2021/04/21 05:11:12;;;;;;;;;;;17.50;63.50;;;;;;5049641;28;19920;-80
2021/04/21 05:13:45;;;;;;;;;;;17.50;63.50;;;;;;5051984;28;20281;-78
2021/04/21 05:16:11;;;;;;;;;;;17.50;63.50;;;;;;5066187;28;19913;-78
2021/04/21 05:19:06;;;;;;;;;;;17.50;63.40;;;;;;5069991;28;20362;-78
2021/04/21 05:21:32;;;;;;;;;;;17.50;63.40;;;;;;5061628;28;20278;-77
2021/04/21 05:24:16;;;;;;;;;;;17.50;63.40;;;;;;5057776;28;19921;-79
2021/04/21 05:26:47;;;;;;;;;;;17.50;63.40;;;;;;5071042;28;19917;-77
2021/04/21 05:29:31;;;;;;;;;;;17.50;63.30;;;;;;5071428;28;19935;-78
2021/04/21 05:32:15;;;;;;;;;;;17.50;63.30;;;;;;5072207;28;19927;-77
2021/04/21 05:34:56;;;;;;;;;;;17.50;63.30;;;;;;5070245;28;19999;-80
2021/04/21 05:37:40;;;;;;;;;;;17.50;63.20;;;;;;5048564;28;19924;-78
2021/04/21 05:40:24;;;;;;;;;;;17.50;63.20;;;;;;5067679;28;19968;-77
2021/04/21 05:43:08;;;;;;;;;;;17.50;63.20;;;;;;5050555;28;19920;-78
2021/04/21 05:45:39;;;;;;;;;;;17.50;63.10;;;;;;5051615;28;19923;-78
2021/04/21 05:48:23;;;;;;;;;;;17.50;63.10;;;;;;5071492;28;19921;-77
2021/04/21 05:50:58;;;;;;;;;;;17.50;63.10;;;;;;5070808;28;19912;-78
2021/04/21 05:53:39;;;;;;;;;;;17.50;63.00;;;;;;5062893;28;19946;-77
2021/04/21 05:56:25;;;;;;;;;;;17.50;63.00;;;;;;5073591;28;19921;-77
2021/04/21 05:58:50;;;;;;;;;;;17.60;62.90;;;;;;5070666;28;20931;-78
2021/04/21 06:01:22;;;;;;;;;;;17.50;62.90;;;;;;5057493;28;19923;-78
2021/04/21 06:03:50;;;;;;;;;;;17.50;62.90;;;;;;5056805;28;19912;-78
2021/04/21 06:06:15;;;;;;;;;;;17.50;62.90;;;;;;5068528;28;19916;-78
2021/04/21 06:08:41;;;;;;;;;;;17.50;62.80;;;;;;5072898;28;20357;-79
2021/04/21 06:11:16;;;;;;;;;;;17.60;62.80;;;;;;5072461;28;19927;-77
2021/04/21 06:13:42;;;;;;;;;;;17.60;62.80;;;;;;5073843;28;19909;-80
2021/04/21 06:16:08;;;;;;;;;;;17.50;62.80;;;;;;5074803;28;19920;-77
2021/04/21 06:18:33;;;;;;;;;;;17.60;62.80;;;;;;5070881;28;19960;-78
2021/04/21 06:20:59;;;;;;;;;;;17.60;62.70;;;;;;5073206;28;19974;-79
2021/04/21 06:23:27;;;;;;;;;;;17.60;62.70;;;;;;5056205;28;19970;-78
2021/04/21 06:26:03;;;;;;;;;;;17.60;62.70;;;;;;5072257;28;19915;-78
2021/04/21 06:28:29;;;;;;;;;;;17.60;62.60;;;;;;5052547;28;20332;-78
2021/04/21 06:31:08;;;;;;;;;;;17.60;62.60;;;;;;5068191;28;20017;-78
2021/04/21 06:33:34;;;;;;;;;;;17.60;62.60;;;;;;5071114;28;19912;-77
2021/04/21 06:36:00;;;;;;;;;;;17.60;62.60;;;;;;5062462;28;19916;-78
2021/04/21 06:38:27;;;;;;;;;;;17.60;62.60;;;;;;5052491;28;19920;-78
2021/04/21 06:40:53;;;;;;;;;;;17.60;62.50;;;;;;5050960;28;19916;-78
2021/04/21 06:43:22;;;;;;;;;;;17.60;62.50;;;;;;5070264;28;20289;-82
2021/04/21 06:45:50;;;;;;;;;;;17.60;62.50;;;;;;5070934;28;19959;-79
2021/04/21 06:48:15;;;;;;;;;;;17.60;62.40;;;;;;5057642;28;19962;-78
2021/04/21 06:50:41;;;;;;;;;;;17.70;62.40;;;;;;5069767;28;19912;-78
2021/04/21 06:53:08;;;;;;;;;;;17.70;62.40;;;;;;5055814;28;19912;-78
2021/04/21 06:55:35;;;;;;;;;;;17.70;62.40;;;;;;5070677;28;19963;-78
2021/04/21 06:58:01;;;;;;;;;;;17.70;62.40;;;;;;5069324;28;19969;-78
2021/04/21 07:00:27;;;;;;;;;;;17.70;62.30;;;;;;5073005;28;20315;-77
2021/04/21 07:02:54;;;;;;;;;;;17.70;62.30;;;;;;5074873;28;19966;-78
2021/04/21 07:05:26;;;;;;;;;;;17.70;62.20;;;;;;5058192;28;19919;-78
2021/04/21 07:08:02;;;;;;;;;;;17.70;62.30;;;;;;5056860;28;19919;-79
2021/04/21 07:10:28;;;;;;;;;;;17.70;62.20;;;;;;5072533;28;19931;-77
2021/04/21 07:12:54;;;;;;;;;;;17.70;62.20;;;;;;5073281;28;19913;-78
2021/04/21 07:15:20;;;;;;;;;;;17.70;62.20;;;;;;5073287;28;19920;-78
2021/04/21 07:17:47;;;;;;;;;;;17.70;62.20;;;;;;5063571;28;19930;-78
2021/04/21 07:20:13;;;;;;;;;;;17.70;62.20;;;;;;5080943;28;20319;-83
2021/04/21 07:22:39;;;;;;;;;;;17.70;62.10;;;;;;5073881;28;20380;-78
2021/04/21 07:25:05;;;;;;;;;;;17.70;62.10;;;;;;5062006;28;19916;-78
2021/04/21 07:27:31;;;;;;;;;;;17.70;62.00;;;;;;5068031;28;19920;-78
2021/04/21 07:29:56;;;;;;;;;;;17.70;62.00;;;;;;5073109;28;19912;-78
2021/04/21 07:32:23;;;;;;;;;;;17.70;62.00;;;;;;5074928;28;19919;-78
2021/04/21 07:34:59;;;;;;;;;;;17.70;62.00;;;;;;5071465;28;20387;-79
2021/04/21 07:37:31;;;;;;;;;;;17.70;61.90;;;;;;5073117;28;19920;-78
2021/04/21 07:39:57;;;;;;;;;;;17.80;61.90;;;;;;5050864;28;20448;-78
2021/04/21 07:42:22;;;;;;;;;;;17.80;61.90;;;;;;5054023;28;19912;-78
2021/04/21 07:44:52;;;;;;;;;;;17.80;61.90;;;;;;5055090;28;19924;-78
2021/04/21 07:47:22;;;;;;;;;;;17.80;61.90;;;;;;5078313;28;19967;-79
2021/04/21 07:49:56;;;;;;;;;;;17.80;61.80;;;;;;5049178;28;20311;-78
2021/04/21 07:52:23;;;;;;;;;;;17.80;61.80;;;;;;5055941;28;19912;-78
2021/04/21 07:54:48;;;;;;;;;;;17.80;61.80;;;;;;5072007;28;19913;-85
2021/04/21 07:57:17;;;;;;;;;;;17.80;61.70;;;;;;5072174;28;19919;-78
2021/04/21 07:59:43;;;;;;;;;;;17.80;61.70;;;;;;5071089;28;19916;-78
2021/04/21 08:02:14;;;;;;;;;;;17.80;61.60;;;;;;5053139;28;19913;-82
2021/04/21 08:04:54;;;;;;;;;;;17.80;61.60;;;;;;5053154;28;19913;-78
2021/04/21 08:07:25;;;;;;;;;;;17.80;61.60;;;;;;5052657;28;20533;-79
2021/04/21 08:09:51;;;;;;;;;;;17.80;61.60;;;;;;5056395;28;19928;-78
2021/04/21 08:12:17;;;;;;;;;;;17.80;61.60;;;;;;5054566;28;19916;-79
2021/04/21 08:14:50;;;;;;;;;;;17.80;61.50;;;;;;5050581;28;19954;-79
2021/04/21 08:17:16;;;;;;;;;;;17.80;61.60;;;;;;5071037;28;19916;-78
2021/04/21 08:19:44;;;;;;;;;;;17.80;61.50;;;;;;5070606;28;20301;-78
2021/04/21 08:22:09;;;;;;;;;;;17.80;61.50;;;;;;5052280;28;20017;-78
2021/04/21 08:24:39;;;;;;;;;;;17.80;61.50;;;;;;5070597;28;20406;-78
2021/04/21 08:27:05;;;;;;;;;;;17.90;61.50;;;;;;5070722;28;19940;-76
2021/04/21 08:29:31;;;;;;;;;;;17.80;61.40;;;;;;5052720;28;20005;-76
2021/04/21 08:31:56;;;;;;;;;;;17.80;61.40;;;;;;5071126;28;20051;-76
2021/04/21 08:34:22;;;;;;;;;;;17.90;61.40;;;;;;5051570;28;20011;-76
2021/04/21 08:36:48;;;;;;;;;;;17.90;61.40;;;;;;5071789;28;19919;-77
2021/04/21 08:39:14;;;;;;;;;;;17.90;61.40;;;;;;5070041;28;20358;-76
2021/04/21 08:41:40;;;;;;;;;;;17.80;61.40;;;;;;5072100;28;20397;-78
2021/04/21 08:44:06;;;;;;;;;;;17.90;61.30;;;;;;5069723;28;19997;-80
2021/04/21 08:46:31;;;;;;;;;;;17.90;61.40;;;;;;5050881;28;19963;-76
2021/04/21 08:48:57;;;;;;;;;;;17.90;61.30;;;;;;5068150;28;19944;-76
2021/04/21 08:51:23;;;;;;;;;;;17.90;61.30;;;;;;5052035;28;20005;-76
2021/04/21 08:53:53;;;;;;;;;;;17.90;61.30;;;;;;5068368;28;19912;-76
2021/04/21 08:56:23;;;;;;;;;;;17.90;61.20;;;;;;5070294;28;19958;-79
2021/04/21 08:58:49;;;;;;;;;;;17.90;61.20;;;;;;5070729;28;19970;-77
2021/04/21 09:01:15;;;;;;;;;;;17.90;61.20;;;;;;5070710;28;19928;-78
2021/04/21 09:03:42;;;;;;;;;;;17.90;61.20;;;;;;5069541;28;19913;-77
2021/04/21 09:06:08;;;;;;;;;;;17.90;61.20;;;;;;5052180;28;19952;-76
2021/04/21 09:08:34;;;;;;;;;;;17.90;61.20;;;;;;5052309;28;19959;-76
2021/04/21 09:10:59;;;;;;;;;;;17.90;61.10;;;;;;5070958;28;19970;-78
2021/04/21 09:13:25;;;;;;;;;;;17.90;61.10;;;;;;5069162;28;19917;-76
2021/04/21 09:15:51;;;;;;;;;;;18.00;61.10;;;;;;5049762;28;19916;-77
2021/04/21 09:18:24;;;;;;;;;;;18.00;61.10;;;;;;5051731;28;19916;-78
2021/04/21 09:20:49;;;;;;;;;;;18.00;61.10;;;;;;5070546;28;20023;-77
2021/04/21 09:23:15;;;;;;;;;;;18.00;61.10;;;;;;5050038;28;20016;-80
2021/04/21 09:25:41;;;;;;;;;;;18.00;61.00;;;;;;5052453;28;19991;-76
2021/04/21 09:28:07;;;;;;;;;;;18.00;61.10;;;;;;5053529;28;19912;-77
2021/04/21 09:30:35;;;;;;;;;;;18.00;61.00;;;;;;5052281;28;19912;-76
2021/04/21 09:33:01;;;;;;;;;;;18.00;61.00;;;;;;5051869;28;19912;-77
2021/04/21 09:35:28;;;;;;;;;;;18.00;61.00;;;;;;5070531;28;19970;-79
2021/04/21 09:38:02;;;;;;;;;;;18.00;61.00;;;;;;5054888;28;19923;-77
2021/04/21 09:40:35;;;;;;;;;;;18.00;60.90;;;;;;5076131;28;20008;-81
2021/04/21 09:43:01;;;;;;;;;;;18.00;60.90;;;;;;5058635;28;19924;-85
2021/04/21 09:45:41;;;;;;;;;;;18.00;60.90;;;;;;5052817;28;19913;-79
2021/04/21 09:48:09;;;;;;;;;;;18.10;60.90;;;;;;5067086;28;19917;-78
2021/04/21 09:50:36;;;;;;;;;;;18.00;60.90;;;;;;5070458;28;20031;-79
2021/04/21 09:53:01;;;;;;;;;;;18.10;60.90;;;;;;5071781;28;19948;-77
2021/04/21 09:55:30;;;;;;;;;;;18.10;60.90;;;;;;5052423;28;19959;-79
2021/04/21 09:57:55;;;;;;;;;;;18.10;60.80;;;;;;5071544;28;19920;-78
2021/04/21 10:00:24;;;;;;;;;;;18.10;60.80;;;;;;5049845;28;20353;-81
2021/04/21 10:02:50;;;;;;;;;;;18.10;60.80;;;;;;5062605;28;19920;-82
2021/04/21 10:05:26;;;;;;;;;;;18.10;60.80;;;;;;5071815;28;19974;-78
2021/04/21 10:08:11;;;;;;;;;;;18.10;60.80;;;;;;5051804;28;19920;-79
2021/04/21 10:10:36;;;;;;;;;;;18.20;60.70;;;;;;5067066;28;20005;-78
2021/04/21 10:13:19;;;;;;;;;;;18.20;60.60;;;;;;5066234;28;20354;-78
2021/04/21 10:15:45;;;;;;;;;;;18.20;60.60;;;;;;5069725;28;19919;-78
2021/04/21 10:18:12;;;;;;;;;;;18.20;60.60;;;;;;5063134;28;19970;-79
2021/04/21 10:20:37;;;;;;;;;;;18.20;60.50;;;;;;5067045;28;19917;-78
2021/04/21 10:23:05;;;;;;;;;;;18.20;60.50;;;;;;5048711;28;20384;-78
2021/04/21 10:25:30;;;;;;;;;;;18.20;60.50;;;;;;5050335;28;19917;-78
2021/04/21 10:27:56;;;;;;;;;;;18.20;60.60;;;;;;5054637;28;19966;-79
2021/04/21 10:30:22;;;;;;;;;;;18.10;60.70;;;;;;5065172;28;20273;-77
2021/04/21 10:32:48;;;;;;;;;;;18.20;60.70;;;;;;5070687;28;19913;-78
2021/04/21 10:35:14;;;;;;;;;;;18.20;60.60;;;;;;5071011;28;20350;-77
2021/04/21 10:37:40;;;;;;;;;;;18.20;60.60;;;;;;5055766;28;19923;-79
2021/04/21 10:40:06;;;;;;;;;;;18.20;60.60;;;;;;5049344;28;19924;-78
2021/04/21 10:42:52;;;;;;;;;;;18.20;60.50;;;;;;5073934;28;19965;-77
2021/04/21 10:45:18;;;;;;;;;;;18.20;60.50;;;;;;5073571;28;20297;-78
2021/04/21 10:47:48;;;;;;;;;;;18.20;60.50;;;;;;5073267;28;19985;-77
2021/04/21 10:50:15;;;;;;;;;;;18.20;60.40;;;;;;5072892;28;19955;-81
2021/04/21 10:52:41;;;;;;;;;;;18.20;60.40;;;;;;5069738;28;19913;-78
2021/04/21 10:55:07;;;;;;;;;;;18.20;60.40;;;;;;5055704;28;19913;-79
2021/04/21 10:57:34;;;;;;;;;;;18.30;60.40;;;;;;5054281;28;19920;-78
2021/04/21 11:00:10;;;;;;;;;;;18.30;60.30;;;;;;5067756;28;19920;-82
2021/04/21 11:02:41;;;;;;;;;;;18.30;60.30;;;;;;5069514;28;19920;-79
2021/04/21 11:05:08;;;;;;;;;;;18.30;60.30;;;;;;5053534;28;19916;-78
2021/04/21 11:07:34;;;;;;;;;;;18.30;60.20;;;;;;5070406;28;19913;-81
2021/04/21 11:10:00;;;;;;;;;;;18.30;60.00;;;;;;5045580;28;20382;-80
2021/04/21 11:12:44;;;;;;;;;;;18.40;59.90;;;;;;5074245;28;19923;-78
2021/04/21 11:15:10;;;;;;;;;;;18.40;59.80;;;;;;5065599;28;19916;-81
2021/04/21 11:17:55;;;;;;;;;;;18.40;59.70;;;;;;5069900;28;19958;-83
2021/04/21 11:20:39;;;;;;;;;;;18.40;59.80;;;;;;5066546;28;19928;-81
2021/04/21 11:23:05;;;;;;;;;;;18.40;59.70;;;;;;5069096;28;19927;-78
2021/04/21 11:25:30;;;;;;;;;;;18.50;59.70;;;;;;5049003;28;19913;-79
2021/04/21 11:27:58;;;;;;;;;;;18.40;59.80;;;;;;5056807;28;19920;-79
2021/04/21 11:30:47;;;;;;;;;;;18.40;59.80;;;;;;5055621;28;19942;-78
2021/04/21 11:33:51;;;;;;;;;;;18.40;59.80;;;;;;5059352;28;20002;-78
2021/04/21 11:36:36;;;;;;;;;;;18.50;59.90;;;;;;5051330;28;19939;-78
2021/04/21 11:39:02;;;;;;;;;;;18.40;59.80;;;;;;5028139;28;19921;-80
2021/04/21 11:41:40;;;;;;;;;;;18.50;59.80;;;;;;5029500;28;19921;-78
2021/04/21 11:44:06;;;;;;;;;;;18.40;59.80;;;;;;5041052;28;19928;-76
2021/04/21 11:46:54;;;;;;;;;;;18.40;59.80;;;;;;5053483;28;19913;-76
2021/04/21 11:49:38;;;;;;;;;;;18.40;59.90;;;;;;5044057;28;19921;-79
2021/04/21 11:52:03;;;;;;;;;;;18.40;59.90;;;;;;5029438;28;19971;-76
2021/04/21 11:54:29;;;;;;;;;;;18.40;60.00;;;;;;5042455;28;19920;-77
2021/04/21 11:56:57;;;;;;;;;;;18.40;60.10;;;;;;5042653;28;20040;-77
2021/04/21 11:59:23;;;;;;;;;;;18.40;60.00;;;;;;5042589;28;19924;-80
2021/04/21 12:01:48;;;;;;;;;;;18.40;60.10;;;;;;5031625;28;19924;-80
2021/04/21 12:04:15;;;;;;;;;;;18.40;60.30;;;;;;5051850;28;19974;-77
2021/04/21 12:06:41;;;;;;;;;;;18.40;60.10;;;;;;5057016;28;19912;-78
2021/04/21 12:09:06;;;;;;;;;;;18.40;60.20;;;;;;5066550;28;20318;-82
2021/04/21 12:11:36;;;;;;;;;;;18.40;60.20;;;;;;5058088;28;19920;-77
2021/04/21 12:14:02;;;;;;;;;;;18.40;60.40;;;;;;5071757;28;20058;-77
2021/04/21 12:16:28;;;;;;;;;;;18.30;60.20;;;;;;5066324;28;20000;-79
2021/04/21 12:18:58;;;;;;;;;;;18.40;60.30;;;;;;5051056;28;20289;-79
2021/04/21 12:21:39;;;;;;;;;;;18.40;60.30;;;;;;5055258;28;20489;-79
2021/04/21 12:24:05;;;;;;;;;;;18.40;60.20;;;;;;5065573;28;19912;-78
2021/04/21 12:26:35;;;;;;;;;;;18.40;60.20;;;;;;5072778;28;20381;-78
2021/04/21 12:29:13;;;;;;;;;;;18.40;60.10;;;;;;5055892;28;19999;-77
2021/04/21 12:31:39;;;;;;;;;;;18.40;60.10;;;;;;5046524;28;19919;-77
2021/04/21 12:34:06;;;;;;;;;;;18.40;60.20;;;;;;5053109;28;19912;-78
2021/04/21 12:36:32;;;;;;;;;;;18.40;60.20;;;;;;5053765;28;20404;-77
2021/04/21 12:39:10;;;;;;;;;;;18.40;60.20;;;;;;5054810;28;20057;-79
2021/04/21 12:41:36;;;;;;;;;;;18.50;60.10;;;;;;5073096;28;20389;-77
2021/04/21 12:44:21;;;;;;;;;;;18.50;60.00;;;;;;5061402;28;19913;-79
2021/04/21 12:46:48;;;;;;;;;;;18.50;60.00;;;;;;5064395;28;19951;-78
2021/04/21 12:49:14;;;;;;;;;;;18.50;59.90;;;;;;5053606;28;19913;-77
2021/04/21 12:51:47;;;;;;;;;;;18.50;59.90;;;;;;5048698;28;19920;-77
2021/04/21 12:54:31;;;;;;;;;;;18.60;59.80;;;;;;5052959;28;19920;-79
2021/04/21 12:56:57;;;;;;;;;;;18.50;59.90;;;;;;5062678;28;19919;-79
2021/04/21 12:59:22;;;;;;;;;;;18.60;59.80;;;;;;5066473;28;20370;-80
2021/04/21 13:01:48;;;;;;;;;;;18.60;59.80;;;;;;5067246;28;19939;-79
2021/04/21 13:04:17;;;;;;;;;;;18.60;59.80;;;;;;5070428;28;19920;-78
2021/04/21 13:06:43;;;;;;;;;;;18.60;59.80;;;;;;5050030;28;19913;-78
2021/04/21 13:09:10;;;;;;;;;;;18.60;59.80;;;;;;5056546;28;19967;-76
2021/04/21 13:11:36;;;;;;;;;;;18.60;59.90;;;;;;5046722;28;19963;-76
2021/04/21 13:14:03;;;;;;;;;;;18.60;59.80;;;;;;5052280;28;19913;-78
2021/04/21 13:16:29;;;;;;;;;;;18.60;59.80;;;;;;5063351;28;19913;-77
2021/04/21 13:18:55;;;;;;;;;;;18.60;59.70;;;;;;5046056;28;19925;-77
2021/04/21 13:21:21;;;;;;;;;;;18.70;59.60;;;;;;5048719;28;20286;-77
2021/04/21 13:23:53;;;;;;;;;;;18.70;59.60;;;;;;5046229;28;19920;-77
2021/04/21 13:26:19;;;;;;;;;;;18.70;59.70;;;;;;5046683;28;20251;-82
2021/04/21 13:28:49;;;;;;;;;;;18.60;59.70;;;;;;5050682;28;19928;-77
2021/04/21 13:31:16;;;;;;;;;;;18.60;59.90;;;;;;5051052;28;20015;-77
2021/04/21 13:33:43;;;;;;;;;;;18.60;59.90;;;;;;5051032;28;19913;-78
2021/04/21 13:36:09;;;;;;;;;;;18.60;59.90;;;;;;5048592;28;19913;-77
2021/04/21 13:38:36;;;;;;;;;;;18.60;60.00;;;;;;5052707;28;19917;-77
2021/04/21 13:41:02;;;;;;;;;;;18.60;60.00;;;;;;5045336;28;19917;-82
2021/04/21 13:43:27;;;;;;;;;;;18.60;60.10;;;;;;5044329;28;19920;-83
2021/04/21 13:45:53;;;;;;;;;;;18.60;60.10;;;;;;5051732;28;19913;-77
2021/04/21 13:48:19;;;;;;;;;;;18.60;60.20;;;;;;5047049;28;19913;-77
2021/04/21 13:50:44;;;;;;;;;;;18.60;60.20;;;;;;5057167;28;20321;-77
2021/04/21 13:53:10;;;;;;;;;;;18.50;60.30;;;;;;5046260;28;20273;-78
2021/04/21 13:55:35;;;;;;;;;;;18.50;60.40;;;;;;5047089;28;20007;-78
2021/04/21 13:58:01;;;;;;;;;;;18.50;60.30;;;;;;5049770;28;19948;-77
2021/04/21 14:00:27;;;;;;;;;;;18.60;60.20;;;;;;5049283;28;20319;-77
2021/04/21 14:02:52;;;;;;;;;;;18.60;60.10;;;;;;5048441;28;19919;-78
2021/04/21 14:05:18;;;;;;;;;;;18.60;60.20;;;;;;5046013;28;19917;-77
2021/04/21 14:07:44;;;;;;;;;;;18.60;60.20;;;;;;5057582;28;19913;-77
2021/04/21 14:10:10;;;;;;;;;;;18.60;60.20;;;;;;5057767;28;20420;-78
2021/04/21 14:12:35;;;;;;;;;;;18.60;60.10;;;;;;5056277;28;19916;-79
2021/04/21 14:15:01;;;;;;;;;;;18.60;60.10;;;;;;5074715;28;19912;-78
2021/04/21 14:17:27;;;;;;;;;;;18.70;60.10;;;;;;5057716;28;19912;-78
2021/04/21 14:19:52;;;;;;;;;;;18.70;60.20;;;;;;5069463;28;19917;-78
2021/04/21 14:22:18;;;;;;;;;;;18.60;60.10;;;;;;5069187;28;19916;-77
2021/04/21 14:24:43;;;;;;;;;;;18.70;60.20;;;;;;5052093;28;20007;-78
2021/04/21 14:27:09;;;;;;;;;;;18.60;60.20;;;;;;5057045;28;19918;-77
2021/04/21 14:29:34;;;;;;;;;;;18.60;60.20;;;;;;5074163;28;19934;-77